Time,TemperatureF,DewpointF,PressureIn,WindDirection,WindDirectionDegrees,WindSpeedMPH,WindSpeedGustMPH,Humidity,HourlyPrecipIn,Conditions,Clouds,dailyrainin,SoftwareType,DateUTC
2013-07-17 00:02:00,71.0,71.0,-100.00,SW,220,1.0,2.0,99,0.00,,,-99.99,,2013-07-17 05:02:00,
2013-07-17 00:11:00,71.0,71.0,-100.00,SSW,205,1.0,1.0,99,0.00,,,-99.99,,2013-07-17 05:11:00,
2013-07-17 00:21:00,71.0,71.0,-100.00,SSW,205,1.0,1.0,99,0.00,,,-99.99,,2013-07-17 05:21:00,
2013-07-17 00:32:00,70.0,70.0,-100.00,SW,220,2.0,2.0,99,0.00,,,-99.99,,2013-07-17 05:32:00,
2013-07-17 00:43:00,70.0,70.0,-100.00,SW,220,0.0,2.0,99,0.00,,,-99.99,,2013-07-17 05:43:00,
2013-07-17 00:52:00,70.0,70.0,-100.00,SW,220,0.0,0.0,99,0.00,,,-99.99,,2013-07-17 05:52:00,
2013-07-17 01:01:00,70.0,70.0,-100.00,SW,215,1.0,1.0,99,0.00,,,-99.99,,2013-07-17 06:01:00,
2013-07-17 01:11:00,69.0,69.0,-100.00,SW,225,2.0,2.0,99,0.00,,,-99.99,,2013-07-17 06:11:00,
2013-07-17 01:22:00,69.0,69.0,-100.00,SW,225,2.0,2.0,99,0.00,,,-99.99,,2013-07-17 06:22:00,
2013-07-17 01:32:00,68.0,68.0,-100.00,SW,220,2.0,2.0,99,0.00,,,-99.99,,2013-07-17 06:32:00,
2013-07-17 01:43:00,68.0,68.0,-100.00,SW,225,2.0,2.0,99,0.00,,,-99.99,,2013-07-17 06:43:00,
2013-07-17 01:52:00,68.0,68.0,-100.00,SW,235,2.0,2.0,99,0.00,,,-99.99,,2013-07-17 06:52:00,
2013-07-17 02:01:00,68.0,68.0,-100.00,WSW,240,1.0,2.0,99,0.00,,,-99.99,,2013-07-17 07:01:00,
2013-07-17 02:11:00,68.0,68.0,-100.00,WSW,240,1.0,2.0,99,0.00,,,-99.99,,2013-07-17 07:11:00,
2013-07-17 02:32:00,68.0,68.0,-100.00,SW,225,1.0,1.0,99,0.00,,,-99.99,,2013-07-17 07:32:00,
2013-07-17 02:42:00,67.0,67.0,-100.00,SW,230,1.0,2.0,99,0.00,,,-99.99,,2013-07-17 07:42:00,
2013-07-17 02:52:00,67.0,67.0,-100.00,WSW,240,0.0,1.0,99,0.00,,,-99.99,,2013-07-17 07:52:00,
2013-07-17 03:11:00,67.0,67.0,-100.00,SW,220,1.0,2.0,99,0.00,,,-99.99,,2013-07-17 08:11:00,
2013-07-17 03:32:00,67.0,67.0,-100.00,WSW,240,2.0,2.0,99,0.00,,,-99.99,,2013-07-17 08:32:00,
2013-07-17 03:42:00,67.0,67.0,-100.00,WSW,240,2.0,2.0,99,0.00,,,-99.99,,2013-07-17 08:42:00,
2013-07-17 03:52:00,67.0,67.0,-100.00,WSW,240,2.0,2.0,99,0.00,,,-99.99,,2013-07-17 08:52:00,
2013-07-17 04:12:00,66.0,66.0,-100.00,SW,225,1.0,2.0,99,0.00,,,-99.99,,2013-07-17 09:12:00,
2013-07-17 04:32:00,66.0,66.0,-100.00,SW,220,1.0,2.0,99,0.00,,,-99.99,,2013-07-17 09:32:00,
2013-07-17 04:43:00,66.0,66.0,-100.00,SSW,195,0.0,1.0,99,0.00,,,-99.99,,2013-07-17 09:43:00,
2013-07-17 04:52:00,66.0,66.0,-100.00,North,-999,-999.0,-999.0,99,0.00,,,-99.99,,2013-07-17 09:52:00,
2013-07-17 05:01:00,66.0,66.0,-100.00,SSW,195,0.0,0.0,99,0.00,,,-99.99,,2013-07-17 10:01:00,
2013-07-17 05:22:00,66.0,66.0,-100.00,SW,230,0.0,0.0,99,0.00,,,-99.99,,2013-07-17 10:22:00,
2013-07-17 05:32:00,66.0,66.0,-100.00,South,190,0.0,0.0,99,0.00,,,-99.99,,2013-07-17 10:32:00,
2013-07-17 05:43:00,66.0,66.0,-100.00,South,190,0.0,0.0,99,0.00,,,-99.99,,2013-07-17 10:43:00,
2013-07-17 05:52:00,65.0,65.0,-100.00,SW,215,1.0,2.0,99,0.00,,,-99.99,,2013-07-17 10:52:00,
2013-07-17 06:01:00,66.0,66.0,-100.00,SW,230,1.0,1.0,99,0.00,,,-99.99,,2013-07-17 11:01:00,
2013-07-17 06:11:00,65.0,65.0,-100.00,SW,225,0.0,0.0,99,0.00,,,-99.99,,2013-07-17 11:11:00,
2013-07-17 06:22:00,65.0,65.0,-100.00,SW,225,0.0,0.0,99,0.00,,,-99.99,,2013-07-17 11:22:00,
2013-07-17 06:32:00,66.0,66.0,-100.00,SW,220,0.0,0.0,99,0.00,,,-99.99,,2013-07-17 11:32:00,
2013-07-17 06:42:00,65.0,65.0,-100.00,South,190,0.0,0.0,99,0.00,,,-99.99,,2013-07-17 11:42:00,
2013-07-17 06:52:00,65.0,65.0,-100.00,SSW,205,0.0,0.0,99,0.00,,,-99.99,,2013-07-17 11:52:00,
2013-07-17 07:01:00,65.0,65.0,-100.00,SSW,205,0.0,0.0,99,0.00,,,-99.99,,2013-07-17 12:01:00,
2013-07-17 07:12:00,67.0,67.0,-100.00,South,185,0.0,0.0,99,0.00,,,-99.99,,2013-07-17 12:12:00,
2013-07-17 07:32:00,67.0,67.0,-100.00,SE,140,0.0,0.0,99,0.00,,,-99.99,,2013-07-17 12:32:00,
2013-07-17 07:42:00,69.0,69.0,-100.00,SE,135,0.0,0.0,99,0.00,,,-99.99,,2013-07-17 12:42:00,
2013-07-17 07:53:00,70.0,70.0,-100.00,SE,135,0.0,0.0,99,0.00,,,-99.99,,2013-07-17 12:53:00,
2013-07-17 08:01:00,72.0,71.0,-100.00,South,185,1.0,2.0,96,0.00,,,-99.99,,2013-07-17 13:01:00,
2013-07-17 08:12:00,74.0,72.0,-100.00,SW,215,2.0,4.0,90,0.00,,,-99.99,,2013-07-17 13:12:00,
2013-07-17 08:22:00,74.0,72.0,-100.00,SW,215,2.0,4.0,90,0.00,,,-99.99,,2013-07-17 13:22:00,
2013-07-17 08:43:00,79.0,73.0,-100.00,WSW,255,5.0,7.0,82,0.00,,,-99.99,,2013-07-17 13:43:00,
2013-07-17 08:52:00,79.0,73.0,-100.00,WSW,250,8.0,9.0,81,0.00,,,-99.99,,2013-07-17 13:52:00,
2013-07-17 09:11:00,80.0,73.0,-100.00,WSW,255,7.0,10.0,79,0.00,,,-99.99,,2013-07-17 14:11:00,
2013-07-17 09:22:00,80.0,73.0,-100.00,SW,235,9.0,12.0,78,0.00,,,-99.99,,2013-07-17 14:22:00,
2013-07-17 09:32:00,81.0,73.0,-100.00,WSW,240,9.0,12.0,77,0.00,,,-99.99,,2013-07-17 14:32:00,
2013-07-17 09:43:00,82.0,74.0,-100.00,SW,230,6.0,12.0,76,0.00,,,-99.99,,2013-07-17 14:43:00,
2013-07-17 09:52:00,83.0,73.0,-100.00,SW,230,7.0,10.0,73,0.00,,,-99.99,,2013-07-17 14:52:00,
2013-07-17 10:01:00,83.0,74.0,-100.00,SW,230,5.0,9.0,72,0.00,,,-99.99,,2013-07-17 15:01:00,
2013-07-17 10:12:00,85.0,74.0,-100.00,WSW,240,4.0,11.0,70,0.00,,,-99.99,,2013-07-17 15:12:00,
2013-07-17 10:21:00,85.0,74.0,-100.00,WSW,240,4.0,11.0,70,0.00,,,-99.99,,2013-07-17 15:21:00,
2013-07-17 10:32:00,85.0,74.0,-100.00,WSW,250,7.0,9.0,68,0.00,,,-99.99,,2013-07-17 15:32:00,
2013-07-17 10:42:00,86.0,73.0,-100.00,WSW,240,7.0,9.0,64,0.00,,,-99.99,,2013-07-17 15:42:00,
2013-07-17 10:52:00,87.0,72.0,-100.00,West,260,6.0,10.0,62,0.00,,,-99.99,,2013-07-17 15:52:00,
2013-07-17 11:01:00,87.0,72.0,-100.00,West,260,6.0,10.0,62,0.00,,,-99.99,,2013-07-17 16:01:00,
2013-07-17 11:11:00,87.0,73.0,-100.00,WSW,240,6.0,9.0,62,0.00,,,-99.99,,2013-07-17 16:11:00,
2013-07-17 11:33:00,88.0,73.0,-100.00,WSW,245,6.0,9.0,60,0.00,,,-99.99,,2013-07-17 16:33:00,
2013-07-17 11:42:00,89.0,73.0,-100.00,WSW,245,7.0,9.0,59,0.00,,,-99.99,,2013-07-17 16:42:00,
2013-07-17 11:52:00,90.0,73.0,-100.00,West,260,7.0,12.0,57,0.00,,,-99.99,,2013-07-17 16:52:00,
2013-07-17 12:11:00,90.0,72.0,-100.00,WSW,240,5.0,12.0,56,0.00,,,-99.99,,2013-07-17 17:11:00,
2013-07-17 12:32:00,90.0,72.0,-100.00,SW,235,9.0,13.0,56,0.00,,,-99.99,,2013-07-17 17:32:00,
2013-07-17 12:43:00,90.0,71.0,-100.00,SW,220,9.0,13.0,54,0.00,,,-99.99,,2013-07-17 17:43:00,
2013-07-17 12:52:00,91.0,71.0,-100.00,WSW,240,7.0,16.0,53,0.00,,,-99.99,,2013-07-17 17:52:00,
2013-07-17 13:11:00,90.0,71.0,-100.00,SW,235,7.0,16.0,54,0.00,,,-99.99,,2013-07-17 18:11:00,
2013-07-17 13:32:00,90.0,70.0,-100.00,WSW,250,9.0,14.0,53,0.00,,,-99.99,,2013-07-17 18:32:00,
2013-07-17 13:43:00,90.0,71.0,-100.00,WSW,245,9.0,14.0,54,0.00,,,-99.99,,2013-07-17 18:43:00,
2013-07-17 13:52:00,90.0,71.0,-100.00,West,265,11.0,16.0,52,0.00,,,-99.99,,2013-07-17 18:52:00,
2013-07-17 14:11:00,90.0,72.0,-100.00,WSW,250,9.0,15.0,54,0.00,,,-99.99,,2013-07-17 19:11:00,
2013-07-17 14:32:00,92.0,72.0,-100.00,SW,235,11.0,15.0,52,0.00,,,-99.99,,2013-07-17 19:32:00,
2013-07-17 14:43:00,89.0,72.0,-100.00,WSW,240,9.0,13.0,56,0.00,,,-99.99,,2013-07-17 19:43:00,
2013-07-17 14:53:00,89.0,71.0,-100.00,WSW,240,9.0,14.0,55,0.00,,,-99.99,,2013-07-17 19:53:00,
2013-07-17 15:01:00,90.0,71.0,-100.00,WSW,250,7.0,13.0,54,0.00,,,-99.99,,2013-07-17 20:01:00,
2013-07-17 15:11:00,89.0,72.0,-100.00,WSW,245,7.0,11.0,56,0.00,,,-99.99,,2013-07-17 20:11:00,
2013-07-17 15:33:00,91.0,73.0,-100.00,WSW,250,7.0,12.0,55,0.00,,,-99.99,,2013-07-17 20:33:00,
2013-07-17 15:43:00,91.0,72.0,-100.00,WSW,245,7.0,12.0,54,0.00,,,-99.99,,2013-07-17 20:43:00,
2013-07-17 15:52:00,91.0,72.0,-100.00,SW,235,12.0,16.0,53,0.00,,,-99.99,,2013-07-17 20:52:00,
2013-07-17 16:01:00,91.0,72.0,-100.00,WSW,250,12.0,17.0,52,0.00,,,-99.99,,2013-07-17 21:01:00,
2013-07-17 16:12:00,92.0,71.0,-100.00,WSW,255,14.0,19.0,50,0.00,,,-99.99,,2013-07-17 21:12:00,
2013-07-17 16:22:00,92.0,71.0,-100.00,WSW,255,14.0,19.0,50,0.00,,,-99.99,,2013-07-17 21:22:00,
2013-07-17 16:32:00,92.0,71.0,-100.00,West,265,8.0,16.0,50,0.00,,,-99.99,,2013-07-17 21:32:00,
2013-07-17 16:42:00,92.0,72.0,-100.00,WSW,245,8.0,14.0,51,0.00,,,-99.99,,2013-07-17 21:42:00,
2013-07-17 16:52:00,92.0,71.0,-100.00,West,260,11.0,16.0,50,0.00,,,-99.99,,2013-07-17 21:52:00,
2013-07-17 17:32:00,88.0,70.0,-100.00,WSW,255,6.0,15.0,54,0.00,,,-99.99,,2013-07-17 22:32:00,
2013-07-17 17:43:00,90.0,71.0,-100.00,West,265,10.0,14.0,52,0.00,,,-99.99,,2013-07-17 22:43:00,
2013-07-17 17:53:00,90.0,70.0,-100.00,West,265,9.0,17.0,51,0.00,,,-99.99,,2013-07-17 22:53:00,
2013-07-17 18:11:00,91.0,71.0,-100.00,WSW,255,11.0,14.0,52,0.00,,,-99.99,,2013-07-17 23:11:00,
2013-07-17 18:32:00,90.0,70.0,-100.00,WSW,255,12.0,17.0,52,0.00,,,-99.99,,2013-07-17 23:32:00,
2013-07-17 18:42:00,89.0,69.0,-100.00,WSW,255,9.0,15.0,52,0.00,,,-99.99,,2013-07-17 23:42:00,
2013-07-17 18:52:00,89.0,69.0,-100.00,West,260,10.0,15.0,51,0.00,,,-99.99,,2013-07-17 23:52:00,
2013-07-17 19:11:00,90.0,70.0,-100.00,WSW,250,7.0,14.0,51,0.00,,,-99.99,,2013-07-18 00:11:00,
2013-07-17 19:33:00,90.0,70.0,-100.00,WSW,245,7.0,12.0,52,0.00,,,-99.99,,2013-07-18 00:33:00,
2013-07-17 19:43:00,89.0,70.0,-100.00,WSW,250,7.0,12.0,53,0.00,,,-99.99,,2013-07-18 00:43:00,
2013-07-17 19:52:00,89.0,70.0,-100.00,WSW,250,7.0,12.0,53,0.00,,,-99.99,,2013-07-18 00:52:00,
2013-07-17 20:11:00,87.0,71.0,-100.00,WSW,255,2.0,4.0,59,0.00,,,-99.99,,2013-07-18 01:11:00,
2013-07-17 20:32:00,87.0,72.0,-100.00,WSW,250,2.0,3.0,60,0.00,,,-99.99,,2013-07-18 01:32:00,
2013-07-17 21:32:00,81.0,73.0,-100.00,WSW,240,0.0,1.0,76,0.00,,,-99.99,,2013-07-18 02:32:00,
2013-07-17 21:42:00,80.0,73.0,-100.00,North,-999,-999.0,-999.0,80,0.00,,,-99.99,,2013-07-18 02:42:00,
2013-07-17 21:52:00,79.0,73.0,-100.00,SW,220,1.0,1.0,82,0.00,,,-99.99,,2013-07-18 02:52:00,
2013-07-17 22:01:00,78.0,74.0,-100.00,SSW,200,2.0,3.0,86,0.00,,,-99.99,,2013-07-18 03:01:00,
2013-07-17 22:11:00,77.0,74.0,-100.00,SW,225,0.0,4.0,88,0.00,,,-99.99,,2013-07-18 03:11:00,
2013-07-17 22:32:00,77.0,74.0,-100.00,SW,215,1.0,2.0,88,0.00,,,-99.99,,2013-07-18 03:32:00,
2013-07-17 22:52:00,76.0,73.0,-100.00,WSW,255,0.0,2.0,91,0.00,,,-99.99,,2013-07-18 03:52:00,
2013-07-17 23:12:00,74.0,73.0,-100.00,WSW,255,2.0,2.0,94,0.00,,,-99.99,,2013-07-18 04:12:00,
2013-07-17 23:32:00,74.0,73.0,-100.00,SW,235,2.0,2.0,95,0.00,,,-99.99,,2013-07-18 04:32:00,
2013-07-17 23:43:00,74.0,72.0,-100.00,SW,230,2.0,2.0,96,0.00,,,-99.99,,2013-07-18 04:43:00,
2013-07-17 23:52:00,74.0,72.0,-100.00,SW,230,2.0,2.0,96,0.00,,,-99.99,,2013-07-18 04:52:00,